Time;durP1;ratioP1;P1;durP2;ratioP2;P2;SDS_P1;SDS_P2;PMS_P1;PMS_P2;Temp;Humidity;BMP_temperature;BMP_pressure;BME280_temperature;BME280_humidity;BME280_pressure;Samples;Min_cycle;Max_cycle;Signal;HPM_P1;HPM_P2
2022/01/02 00:00:14;;;;;;;2.60;1.13;;;;;;;9.12;100.00;101468.13;6189366;28;20102;-82
2022/01/02 00:03:24;;;;;;;2.38;1.38;;;;;;;9.13;100.00;101469.88;6185977;28;20058;-83
2022/01/02 00:06:26;;;;;;;1.67;1.08;;;;;;;9.13;100.00;101469.88;6186351;28;20054;-83
2022/01/02 00:09:32;;;;;;;1.35;0.80;;;;;;;9.12;100.00;101459.44;6185270;28;20057;-83
2022/01/02 00:12:35;;;;;;;2.25;1.15;;;;;;;9.13;100.00;101456.78;6186438;28;20058;-83
2022/01/02 00:15:38;;;;;;;2.15;1.30;;;;;;;9.11;100.00;101437.59;6185929;28;20065;-82
2022/01/02 00:18:49;;;;;;;3.35;1.10;;;;;;;9.14;100.00;101418.28;6177133;28;20055;-83
2022/01/02 00:21:53;;;;;;;3.20;1.27;;;;;;;9.19;100.00;101418.97;6161138;29;20055;-83
2022/01/02 00:24:55;;;;;;;2.80;1.40;;;;;;;9.25;100.00;101415.25;6161455;29;20051;-83
2022/01/02 00:27:58;;;;;;;1.50;1.10;;;;;;;9.29;100.00;101430.81;6160936;28;20062;-82
2022/01/02 00:30:59;;;;;;;3.88;1.27;;;;;;;9.31;100.00;101434.25;6160277;29;20054;-83
2022/01/02 00:34:04;;;;;;;4.43;1.20;;;;;;;9.43;100.00;101425.06;6180708;28;20054;-82
2022/01/02 00:37:06;;;;;;;1.95;1.10;;;;;;;9.47;100.00;101402.19;6185413;28;20062;-83
2022/01/02 00:40:09;;;;;;;2.90;1.52;;;;;;;9.48;100.00;101414.41;6185077;28;20054;-83
2022/01/02 00:43:18;;;;;;;1.92;1.30;;;;;;;9.46;100.00;101409.22;6183897;28;20062;-83
2022/01/02 00:46:20;;;;;;;;;;;;;;;9.51;100.00;101393.31;6201091;28;20030;-80
2022/01/02 00:49:26;;;;;;;2.38;1.20;;;;;;;9.51;100.00;101388.06;6191788;28;20274;-82
2022/01/02 00:52:28;;;;;;;3.03;1.33;;;;;;;9.49;100.00;101385.47;6195883;28;20058;-82
2022/01/02 00:55:34;;;;;;;2.55;1.27;;;;;;;9.54;100.00;101367.81;6196273;28;20051;-83
2022/01/02 00:58:39;;;;;;;2.20;1.20;;;;;;;9.53;100.00;101376.56;6194740;28;20074;-82
2022/01/02 01:01:48;;;;;;;2.83;1.25;;;;;;;9.48;100.00;101362.78;6195943;28;20054;-83
2022/01/02 01:04:53;;;;;;;1.23;0.98;;;;;;;9.46;100.00;101345.41;6199058;28;20054;-83
2022/01/02 01:07:56;;;;;;;1.98;1.10;;;;;;;9.44;100.00;101342.81;6211591;28;20054;-83
2022/01/02 01:11:00;;;;;;;2.47;1.40;;;;;;;9.43;100.00;101359.47;6219694;28;20093;-79
2022/01/02 01:14:02;;;;;;;1.45;1.10;;;;;;;9.49;100.00;101369.72;6202857;28;20053;-83
2022/01/02 01:17:03;;;;;;;3.60;1.45;;;;;;;9.50;100.00;101375.84;6193900;28;20062;-81
2022/01/02 01:20:09;;;;;;;2.05;1.27;;;;;;;9.50;100.00;101373.22;6195833;28;20047;-82
2022/01/02 01:23:15;;;;;;;2.13;1.30;;;;;;;9.50;100.00;101378.47;6207748;28;20062;-83
2022/01/02 01:26:17;;;;;;;2.25;1.23;;;;;;;9.48;100.00;101380.28;6208643;28;20058;-82
2022/01/02 01:29:18;;;;;;;1.23;0.90;;;;;;;9.50;100.00;101391.59;6210452;28;20046;-82
2022/01/02 01:32:20;;;;;;;1.33;0.82;;;;;;;9.50;100.00;101381.94;6204274;28;20050;-84
2022/01/02 01:35:23;;;;;;;2.25;1.05;;;;;;;9.52;100.00;101379.25;6221181;28;20441;-83
2022/01/02 01:38:25;;;;;;;3.50;1.00;;;;;;;9.48;100.00;101381.13;6221455;28;20057;-83
2022/01/02 01:41:29;;;;;;;1.80;1.08;;;;;;;9.49;100.00;101393.34;6219766;28;20050;-82
2022/01/02 01:44:41;;;;;;;2.03;1.20;;;;;;;9.47;100.00;101382.06;6197215;28;20426;-83
2022/01/02 01:47:42;;;;;;;2.70;1.17;;;;;;;9.45;100.00;101377.78;6196125;28;20055;-83
2022/01/02 01:50:45;;;;;;;2.20;1.33;;;;;;;9.44;100.00;101373.44;6185654;28;20043;-83
2022/01/02 01:53:46;;;;;;;1.98;0.93;;;;;;;9.39;100.00;101365.75;6173151;28;20388;-83
2022/01/02 01:56:50;;;;;;;1.70;1.15;;;;;;;9.39;100.00;101358.72;6158599;28;20054;-82
2022/01/02 01:59:52;;;;;;;2.33;1.30;;;;;;;9.40;100.00;101360.47;6151779;28;20102;-82
2022/01/02 02:02:55;;;;;;;2.25;1.25;;;;;;;9.42;100.00;101377.91;6152104;28;20431;-82
2022/01/02 02:05:58;;;;;;;6.50;1.35;;;;;;;9.48;100.00;101381.13;6155279;28;20062;-82
2022/01/02 02:09:00;;;;;;;3.13;1.40;;;;;;;9.56;100.00;101383.47;6182513;28;20051;-82
2022/01/02 02:12:01;;;;;;;1.92;1.20;;;;;;;9.60;100.00;101391.16;6201247;28;20193;-82
2022/01/02 02:15:04;;;;;;;1.13;1.00;;;;;;;9.62;100.00;101386.69;6201257;28;20054;-82
2022/01/02 02:18:05;;;;;;;2.08;1.17;;;;;;;9.62;100.00;101381.44;6201518;28;20054;-82
2022/01/02 02:21:08;;;;;;;3.38;1.25;;;;;;;9.67;100.00;101376.03;6155209;28;20059;-81
2022/01/02 02:24:09;;;;;;;4.22;1.50;;;;;;;9.69;100.00;101371.59;6152878;29;20052;-82
2022/01/02 02:27:11;;;;;;;2.35;1.30;;;;;;;9.68;100.00;101372.50;6156357;28;20054;-82
2022/01/02 02:30:12;;;;;;;1.83;1.15;;;;;;;9.61;100.00;101366.63;6157386;29;20043;-82
2022/01/02 02:33:15;;;;;;;3.05;1.40;;;;;;;9.57;100.00;101374.69;6158525;29;20054;-82
2022/01/02 02:36:18;;;;;;;1.23;1.05;;;;;;;9.49;100.00;101384.63;6157745;29;20062;-82
2022/01/02 02:39:19;;;;;;;3.33;1.40;;;;;;;9.44;100.00;101368.19;6156776;29;20043;-82
2022/01/02 02:42:31;;;;;;;1.58;1.30;;;;;;;9.38;100.00;101375.41;6159650;29;20058;-82
2022/01/02 02:49:00;;;;;;;2.35;1.40;;;;;;;9.39;100.00;101355.25;6154874;28;20051;-81
2022/01/02 02:52:09;;;;;;;;;;;;;;;9.36;100.00;101343.13;6178711;28;20572;-82
2022/01/02 02:55:11;;;;;;;1.27;0.90;;;;;;;9.31;100.00;101339.84;6178740;28;19977;-82
2022/01/02 02:58:38;;;;;;;2.10;1.05;;;;;;;9.26;100.00;101331.28;6178370;28;20047;-81
2022/01/02 03:01:40;;;;;;;2.80;1.30;;;;;;;9.22;100.00;101339.31;6177339;28;20053;-80
2022/01/02 03:04:41;;;;;;;7.03;1.30;;;;;;;9.15;100.00;101336.09;6177755;28;20418;-81
2022/01/02 03:07:44;;;;;;;1.70;1.10;;;;;;;9.14;100.00;101334.38;6177525;28;20057;-81
2022/01/02 03:10:45;;;;;;;1.63;1.38;;;;;;;9.12;100.00;101338.81;6177595;28;20042;-80
2022/01/02 03:13:49;;;;;;;4.85;2.08;;;;;;;9.10;100.00;101323.16;6177154;28;20058;-81
2022/01/02 03:16:50;;;;;;;1.42;1.13;;;;;;;9.11;100.00;101311.75;6177338;28;20058;-81
2022/01/02 03:19:51;;;;;;;2.15;1.40;;;;;;;9.09;100.00;101310.97;6176000;28;20487;-81
2022/01/02 03:22:54;;;;;;;5.00;1.38;;;;;;;9.09;100.00;101302.25;6192184;28;20051;-81
2022/01/02 03:25:55;;;;;;;2.58;1.55;;;;;;;9.07;100.00;101294.41;6175564;28;20058;-81
2022/01/02 03:28:57;;;;;;;1.70;1.20;;;;;;;9.12;100.00;101286.38;6171267;28;20051;-81
2022/01/02 03:31:59;;;;;;;2.05;1.58;;;;;;;9.12;100.00;101281.97;6164325;28;20046;-82
2022/01/02 03:35:00;;;;;;;2.53;1.17;;;;;;;9.14;100.00;101289.81;6192821;28;20050;-82
2022/01/02 03:38:04;;;;;;;2.30;1.33;;;;;;;9.16;100.00;101282.72;6156274;28;1340812;-82
2022/01/02 03:41:05;;;;;;;5.68;1.40;;;;;;;9.15;100.00;101283.63;6202254;28;20050;-81
2022/01/02 03:44:07;;;;;;;2.38;1.23;;;;;;;9.14;100.00;101277.53;6192593;28;20062;-81
2022/01/02 03:47:08;;;;;;;5.03;1.73;;;;;;;9.18;100.00;101267.78;6200948;28;20054;-81
2022/01/02 03:50:10;;;;;;;4.53;1.50;;;;;;;9.19;100.00;101245.03;6176722;28;20518;-82
2022/01/02 03:53:12;;;;;;;2.05;1.42;;;;;;;9.18;100.00;101245.97;6179053;28;20065;-81
2022/01/02 03:56:14;;;;;;;2.10;1.42;;;;;;;9.16;100.00;101240.75;6178834;28;20047;-81
2022/01/02 03:59:15;;;;;;;2.55;1.60;;;;;;;9.16;100.00;101230.28;6179077;28;20453;-82
2022/01/02 04:02:17;;;;;;;5.20;1.65;;;;;;;9.17;100.00;101218.00;6178083;28;20418;-81
2022/01/02 04:05:18;;;;;;;2.78;1.35;;;;;;;9.13;100.00;101218.16;6178306;28;20058;-81
2022/01/02 04:08:21;;;;;;;1.42;1.13;;;;;;;9.12;100.00;101208.56;6186056;28;20058;-81
2022/01/02 04:11:23;;;;;;;1.45;0.88;;;;;;;9.15;100.00;101202.34;6187186;28;20461;-81
2022/01/02 04:14:24;;;;;;;4.72;1.48;;;;;;;9.15;100.00;101173.50;6202196;28;20050;-82
2022/01/02 04:17:26;;;;;;;2.10;1.38;;;;;;;9.17;100.00;101168.19;6193092;28;20051;-82
2022/01/02 04:20:27;;;;;;;2.00;1.17;;;;;;;9.13;100.00;101160.47;6177831;28;20042;-81
2022/01/02 04:23:30;;;;;;;2.08;1.20;;;;;;;9.16;100.00;101154.22;6178604;28;20061;-82
2022/01/02 04:26:31;;;;;;;3.88;1.55;;;;;;;9.23;100.00;101153.09;6178362;28;20486;-82
2022/01/02 04:29:33;;;;;;;4.28;1.95;;;;;;;9.23;100.00;101153.09;6178223;28;20410;-82
2022/01/02 04:32:34;;;;;;;3.30;1.77;;;;;;;9.22;100.00;101147.88;6177632;28;20054;-81
2022/01/02 04:35:35;;;;;;;2.97;1.52;;;;;;;9.27;100.00;101152.03;6177867;28;20062;-82
2022/01/02 04:38:39;;;;;;;2.10;1.38;;;;;;;9.27;100.00;101148.56;6177689;28;20443;-82
2022/01/02 04:41:41;;;;;;;1.27;0.90;;;;;;;9.26;100.00;101142.44;6177377;28;20089;-82
2022/01/02 04:44:42;;;;;;;3.20;1.27;;;;;;;9.25;100.00;101132.88;6177543;28;20434;-82
2022/01/02 04:47:43;;;;;;;4.47;1.40;;;;;;;9.24;100.00;101141.66;6175473;28;20396;-81
2022/01/02 04:50:45;;;;;;;3.83;2.15;;;;;;;9.29;100.00;101134.47;6176596;28;20058;-81
2022/01/02 04:53:48;;;;;;;1.83;1.23;;;;;;;9.30;100.00;101130.91;6177195;28;20058;-82
2022/01/02 04:56:49;;;;;;;2.75;1.15;;;;;;;9.29;100.00;101133.59;6177213;28;20058;-81
2022/01/02 04:59:50;;;;;;;2.78;1.30;;;;;;;9.29;100.00;101123.97;6176962;28;20054;-83
2022/01/02 05:02:52;;;;;;;3.33;1.20;;;;;;;9.30;100.00;101109.94;6178524;28;20055;-82
2022/01/02 05:05:54;;;;;;;1.80;0.90;;;;;;;9.28;100.00;101113.56;6178254;28;20047;-82
2022/01/02 05:08:56;;;;;;;2.85;1.50;;;;;;;9.30;100.00;101106.47;6178152;28;20054;-82
2022/01/02 05:11:58;;;;;;;11.30;1.45;;;;;;;9.32;100.00;101097.63;6177666;28;20498;-83
2022/01/02 05:14:59;;;;;;;2.67;1.38;;;;;;;9.34;100.00;101105.41;6177932;28;20055;-82
2022/01/02 05:18:00;;;;;;;3.47;1.70;;;;;;;9.35;100.00;101107.13;6154092;28;20522;-83
2022/01/02 05:21:02;;;;;;;3.42;1.70;;;;;;;9.39;100.00;101101.66;6153746;28;20058;-82
2022/01/02 05:24:04;;;;;;;4.75;1.67;;;;;;;9.45;100.00;101095.34;6153414;28;20058;-84
2022/01/02 05:27:06;;;;;;;2.05;1.42;;;;;;;9.49;100.00;101094.25;6153118;28;20054;-83
2022/01/02 05:30:08;;;;;;;4.43;1.33;;;;;;;9.56;100.00;101086.97;6152994;29;20047;-83
2022/01/02 05:33:10;;;;;;;3.80;1.60;;;;;;;9.60;100.00;101086.78;6198383;28;20054;-83
2022/01/02 05:36:12;;;;;;;2.38;1.30;;;;;;;9.62;100.00;101073.59;6201594;28;20042;-82
2022/01/02 05:39:15;;;;;;;3.63;1.48;;;;;;;9.64;100.00;101077.88;6201572;28;20051;-83
2022/01/02 05:42:16;;;;;;;1.95;1.25;;;;;;;9.66;100.00;101083.88;6202122;28;20096;-83
2022/01/02 05:45:17;;;;;;;3.53;1.00;;;;;;;9.77;100.00;101082.56;6179777;28;20047;-83
2022/01/02 05:48:19;;;;;;;1.67;1.05;;;;;;;9.81;100.00;101079.75;6153694;29;20059;-83
2022/01/02 05:51:21;;;;;;;2.13;1.20;;;;;;;9.83;100.00;101072.63;6153182;29;20074;-82
2022/01/02 05:54:23;;;;;;;3.22;1.50;;;;;;;9.84;100.00;101063.00;6153394;29;20051;-83
2022/01/02 05:57:25;;;;;;;1.75;0.88;;;;;;;9.87;100.00;101071.59;6152700;29;20055;-83
2022/01/02 06:00:26;;;;;;;3.25;1.02;;;;;;;9.96;100.00;101059.81;6152731;28;20051;-82
2022/01/02 06:03:27;;;;;;;5.47;1.33;;;;;;;9.97;100.00;101043.13;6152973;29;20604;-82
2022/01/02 06:06:29;;;;;;;5.43;2.15;;;;;;;10.07;100.00;101046.19;6153928;28;20054;-82
2022/01/02 06:09:32;;;;;;;2.63;1.48;;;;;;;10.08;100.00;101058.38;6157011;29;20050;-82
2022/01/02 06:12:33;;;;;;;6.45;1.20;;;;;;;10.07;100.00;101057.53;6158310;28;20055;-83
2022/01/02 06:15:35;;;;;;;2.92;1.10;;;;;;;10.04;100.00;101070.81;6155077;28;20055;-84
2022/01/02 06:18:36;;;;;;;4.60;1.35;;;;;;;10.11;100.00;101076.63;6175694;28;20498;-82
2022/01/02 06:21:37;;;;;;;6.13;2.65;;;;;;;10.06;100.00;101082.09;6176488;28;20050;-83
2022/01/02 06:24:40;;;;;;;5.68;1.48;;;;;;;10.07;100.00;101077.69;6176876;28;20055;-83
2022/01/02 06:27:42;;;;;;;2.90;1.30;;;;;;;10.02;100.00;101059.53;6178792;28;20058;-83
2022/01/02 06:30:43;;;;;;;10.40;1.23;;;;;;;10.03;100.00;101073.50;6182405;28;20051;-83
2022/01/02 06:33:44;;;;;;;2.47;1.40;;;;;;;10.06;100.00;101065.50;6181836;28;20513;-82
2022/01/02 06:36:46;;;;;;;3.28;1.77;;;;;;;10.05;100.00;101066.41;6179678;28;20046;-82
2022/01/02 06:39:48;;;;;;;2.38;1.10;;;;;;;10.01;100.00;101062.22;6170492;28;20054;-82
2022/01/02 06:42:51;;;;;;;3.55;1.42;;;;;;;10.02;100.00;101056.91;6175938;28;20054;-82
2022/01/02 06:45:54;;;;;;;3.25;1.30;;;;;;;9.97;100.00;101061.50;6179309;28;20062;-81
2022/01/02 06:48:55;;;;;;;2.10;1.42;;;;;;;9.97;100.00;101058.03;6157873;28;20051;-82
2022/01/02 06:51:56;;;;;;;6.15;1.40;;;;;;;9.96;100.00;101057.19;6170371;28;20094;-81
2022/01/02 06:55:01;;;;;;;2.28;1.48;;;;;;;9.95;100.00;101046.75;6175487;28;20050;-82
2022/01/02 06:58:04;;;;;;;6.45;1.85;;;;;;;10.02;100.00;101041.16;6165567;28;20084;-81
2022/01/02 07:01:06;;;;;;;4.82;1.45;;;;;;;10.02;100.00;101049.03;6161631;28;20042;-81
2022/01/02 07:04:07;;;;;;;4.20;1.30;;;;;;;9.99;100.00;101049.19;6161902;28;20054;-81
2022/01/02 07:07:09;;;;;;;6.97;1.90;;;;;;;9.97;100.00;101042.28;6166618;28;20054;-82
2022/01/02 07:10:12;;;;;;;2.58;1.38;;;;;;;10.07;100.00;101044.41;6165751;28;20524;-82
2022/01/02 07:13:14;;;;;;;2.17;1.27;;;;;;;10.09;100.00;101042.56;6169042;28;20055;-81
2022/01/02 07:16:15;;;;;;;2.60;1.30;;;;;;;10.08;100.00;101030.38;6179873;28;20117;-80
2022/01/02 07:19:17;;;;;;;4.22;1.65;;;;;;;10.10;100.00;101028.50;6188175;28;20051;-81
2022/01/02 07:22:18;;;;;;;4.00;1.92;;;;;;;10.13;100.00;101024.91;6195709;28;20537;-81
2022/01/02 07:25:21;;;;;;;5.05;1.90;;;;;;;10.17;100.00;101015.94;6204082;28;20057;-81
2022/01/02 07:28:22;;;;;;;2.35;1.27;;;;;;;10.11;100.00;101019.72;6203279;28;20050;-81
2022/01/02 07:31:24;;;;;;;3.08;1.60;;;;;;;10.09;100.00;101008.44;6203530;28;20053;-81
2022/01/02 07:34:25;;;;;;;7.28;2.67;;;;;;;10.06;100.00;101002.47;6203570;28;20520;-81
2022/01/02 07:37:26;;;;;;;2.55;1.30;;;;;;;10.08;100.00;100995.38;6185744;28;20558;-81
2022/01/02 07:40:29;;;;;;;4.75;1.55;;;;;;;10.05;100.00;101001.63;6167467;28;20050;-81
2022/01/02 07:43:30;;;;;;;2.90;1.17;;;;;;;10.10;100.00;100993.53;6163501;28;20055;-81
2022/01/02 07:46:33;;;;;;;2.05;1.42;;;;;;;10.13;100.00;100990.78;6157942;28;20058;-81
2022/01/02 07:49:35;;;;;;;2.95;1.55;;;;;;;10.17;100.00;100987.03;6164922;28;20058;-81
2022/01/02 07:52:37;;;;;;;5.05;1.65;;;;;;;10.24;100.00;100969.22;6165706;28;20047;-81
2022/01/02 07:55:39;;;;;;;2.47;1.40;;;;;;;10.15;100.00;100970.53;6164184;28;20450;-80
2022/01/02 07:58:41;;;;;;;2.25;1.40;;;;;;;10.16;100.00;100967.81;6166576;28;20059;-81
2022/01/02 08:01:42;;;;;;;2.70;1.42;;;;;;;10.13;100.00;100973.25;6163226;28;20050;-80
2022/01/02 08:04:43;;;;;;;3.55;1.65;;;;;;;10.12;100.00;100968.88;6166682;28;20058;-81
2022/01/02 08:07:45;;;;;;;1.67;1.25;;;;;;;10.11;100.00;100967.19;6164510;28;20070;-81
2022/01/02 08:10:47;;;;;;;3.45;1.85;;;;;;;10.12;100.00;100947.03;6165989;28;20059;-81
2022/01/02 08:13:49;;;;;;;3.38;1.35;;;;;;;10.11;100.00;100940.09;6165682;28;20054;-81
2022/01/02 08:16:50;;;;;;;6.72;2.65;;;;;;;10.11;100.00;100925.16;6164552;28;20494;-80
2022/01/02 08:19:51;;;;;;;4.85;2.50;;;;;;;10.08;100.00;100919.22;6167106;28;20062;-81
2022/01/02 08:22:53;;;;;;;2.47;1.58;;;;;;;10.09;100.00;100916.53;6164685;28;20066;-81
2022/01/02 08:25:56;;;;;;;2.28;1.60;;;;;;;10.11;100.00;100908.56;6163076;28;20133;-81
2022/01/02 08:29:00;;;;;;;3.53;1.73;;;;;;;10.18;100.00;100909.13;6165339;28;20058;-81
2022/01/02 08:32:01;;;;;;;3.10;1.65;;;;;;;10.16;100.00;100889.03;6171210;28;20053;-81
2022/01/02 08:35:03;;;;;;;6.88;1.73;;;;;;;10.15;100.00;100886.50;6177210;28;20051;-82
2022/01/02 08:38:04;;;;;;;4.82;1.63;;;;;;;10.09;100.00;100864.00;6177175;28;20061;-81
2022/01/02 08:41:07;;;;;;;1.65;1.05;;;;;;;10.07;100.00;100859.75;6175230;28;20416;-81
2022/01/02 08:44:08;;;;;;;5.03;1.90;;;;;;;10.03;100.00;100853.78;6177336;28;20059;-82
2022/01/02 08:47:11;;;;;;;3.15;1.30;;;;;;;10.04;100.00;100850.28;6177665;28;20061;-82
2022/01/02 08:50:12;;;;;;;2.42;1.30;;;;;;;10.05;100.00;100851.13;6185629;28;20047;-81
2022/01/02 08:53:13;;;;;;;2.80;1.20;;;;;;;10.10;100.00;100825.47;6192559;28;20055;-81
2022/01/02 08:56:16;;;;;;;4.07;1.45;;;;;;;10.08;100.00;100817.69;6203080;28;20051;-82
2022/01/02 08:59:21;;;;;;;7.22;2.17;;;;;;;10.08;100.00;100825.56;6191404;28;20047;-82
2022/01/02 09:02:22;;;;;;;2.28;1.48;;;;;;;10.08;100.00;100816.81;6193789;28;20050;-81
2022/01/02 09:05:25;;;;;;;3.83;1.92;;;;;;;10.16;100.00;100806.78;6197671;28;20055;-82
2022/01/02 09:08:27;;;;;;;1.23;1.10;;;;;;;10.11;100.00;100803.53;6195120;28;20056;-82
2022/01/02 09:11:29;;;;;;;1.95;1.27;;;;;;;10.14;100.00;100796.34;6179633;28;20058;-82
2022/01/02 09:14:31;;;;;;;3.17;1.42;;;;;;;10.18;100.00;100790.97;6180681;28;20054;-82
2022/01/02 09:17:33;;;;;;;1.85;1.40;;;;;;;10.19;100.00;100776.91;6157322;28;20047;-82
2022/01/02 09:20:34;;;;;;;8.80;2.17;;;;;;;10.16;100.00;100770.84;6174183;28;20050;-82
2022/01/02 09:23:36;;;;;;;3.38;1.45;;;;;;;10.18;100.00;100755.03;6177237;28;20062;-82
2022/01/02 09:26:38;;;;;;;3.05;1.60;;;;;;;10.22;100.00;100756.59;6179964;28;20127;-82
2022/01/02 09:29:40;;;;;;;3.45;1.92;;;;;;;10.23;100.00;100744.28;6190004;28;20081;-82
2022/01/02 09:32:41;;;;;;;1.55;1.30;;;;;;;10.23;100.00;100739.88;6193137;28;20061;-82
2022/01/02 09:35:42;;;;;;;2.08;1.15;;;;;;;10.26;100.00;100738.91;6200926;28;20050;-81
2022/01/02 09:38:44;;;;;;;4.53;1.55;;;;;;;10.29;100.00;100710.69;6190544;28;20046;-83
2022/01/02 09:41:47;;;;;;;5.05;1.65;;;;;;;10.34;100.00;100713.94;6161791;28;20055;-83
2022/01/02 09:44:49;;;;;;;4.20;1.50;;;;;;;10.40;100.00;100708.38;6156397;29;20070;-82
2022/01/02 09:47:51;;;;;;;8.88;1.85;;;;;;;10.41;100.00;100699.56;6153287;28;20438;-83
2022/01/02 09:50:53;;;;;;;5.30;2.28;;;;;;;10.45;100.00;100692.34;6175570;28;20058;-81
2022/01/02 09:53:56;;;;;;;4.05;1.45;;;;;;;10.46;100.00;100680.06;6196999;28;20061;-82
2022/01/02 09:56:59;;;;;;;2.35;1.10;;;;;;;10.46;100.00;100678.28;6201908;28;20494;-82
2022/01/02 10:00:00;;;;;;;2.13;1.35;;;;;;;10.57;100.00;100659.31;6197757;28;20062;-82
2022/01/02 10:03:05;;;;;;;2.40;1.27;;;;;;;10.51;100.00;100665.75;6188572;28;20046;-81
2022/01/02 10:06:06;;;;;;;3.22;1.27;;;;;;;10.54;100.00;100670.00;6171895;28;20415;-82
2022/01/02 10:09:11;;;;;;;1.80;1.10;;;;;;;10.57;100.00;100685.56;6171836;28;20043;-82
2022/01/02 10:12:28;;;;;;;1.90;1.25;;;;;;;10.59;100.00;100676.69;6173150;28;20562;-83
2022/01/02 10:15:34;;;;;;;3.80;1.67;;;;;;;10.60;100.00;100690.69;6170155;28;20043;-82
2022/01/02 10:18:35;;;;;;;2.78;1.42;;;;;;;10.61;100.00;100687.94;6181257;28;20062;-82
2022/01/02 10:21:40;;;;;;;2.50;1.13;;;;;;;10.64;100.00;100684.31;6194202;28;20046;-82
2022/01/02 10:24:42;;;;;;;4.28;1.25;;;;;;;10.62;100.00;100696.69;6197706;28;20062;-82
2022/01/02 10:27:45;;;;;;;7.25;1.30;;;;;;;10.68;100.00;100698.16;6193162;28;20185;-81
2022/01/02 10:30:47;;;;;;;3.90;1.35;;;;;;;10.79;100.00;100708.91;6188986;28;20042;-81
2022/01/02 10:33:51;;;;;;;4.53;1.38;;;;;;;10.92;100.00;100721.31;6170349;28;20470;-82
2022/01/02 10:36:52;;;;;;;1.23;1.00;;;;;;;11.02;100.00;100713.75;6160769;28;20108;-83
2022/01/02 10:39:53;;;;;;;2.13;1.67;;;;;;;10.96;100.00;100714.09;6165565;28;20062;-82
2022/01/02 10:42:57;;;;;;;4.70;1.35;;;;;;;10.91;100.00;100653.88;6193621;28;20049;-83
2022/01/02 10:46:03;;;;;;;4.22;1.73;;;;;;;10.86;100.00;100679.59;6191799;28;20053;-83
2022/01/02 10:49:05;;;;;;;8.18;0.95;;;;;;;10.88;100.00;100676.84;6188331;28;20573;-83
2022/01/02 10:52:17;;;;;;;5.32;1.85;;;;;;;11.01;100.00;100661.25;6181678;28;20047;-82
2022/01/02 10:55:20;;;;;;;4.95;1.40;;;;;;;11.11;100.00;100665.88;6186258;28;20046;-79
2022/01/02 10:58:25;;;;;;;5.07;1.63;;;;;;;11.16;100.00;100655.94;6184664;28;20058;-80
2022/01/02 11:01:27;;;;;;;2.25;1.10;;;;;;;11.06;100.00;100620.59;6182438;28;20043;-80
2022/01/02 11:04:30;;;;;;;2.95;1.40;;;;;;;11.06;100.00;100606.59;6176399;28;20051;-79
2022/01/02 11:07:39;;;;;;;2.63;1.42;;;;;;;10.94;100.00;100613.41;6166291;28;20109;-75
2022/01/02 11:10:41;;;;;;;;;;;;;;;10.86;100.00;100613.88;6176779;28;20058;-76
2022/01/02 11:13:44;;;;;;;3.78;1.30;;;;;;;10.83;100.00;100618.44;6178784;28;19922;-78
2022/01/02 11:16:47;;;;;;;2.92;1.75;;;;;;;10.80;100.00;100601.03;6175973;28;20054;-77
2022/01/02 11:19:48;;;;;;;3.33;1.40;;;;;;;10.80;100.00;100592.31;6168145;28;20426;-77
2022/01/02 11:22:54;;;;;;;1.70;1.35;;;;;;;10.74;100.00;100588.25;6172227;28;20047;-78
2022/01/02 11:26:04;;;;;;;2.60;1.35;;;;;;;10.70;100.00;100576.22;6170315;28;20101;-76
2022/01/02 11:29:07;;;;;;;1.95;1.27;;;;;;;10.68;100.00;100570.22;6170827;28;20070;-79
2022/01/02 11:32:22;;;;;;;3.30;1.27;;;;;;;10.66;100.00;100565.03;6171988;28;20054;-77
2022/01/02 11:35:27;;;;;;;1.55;0.90;;;;;;;10.74;100.00;100564.59;6164718;28;20047;-76
2022/01/02 11:38:44;;;;;;;3.70;1.50;;;;;;;10.87;100.00;100578.75;6179121;28;20054;-77
2022/01/02 11:41:47;;;;;;;7.50;1.77;;;;;;;11.12;100.00;100548.38;6170015;28;20051;-77
2022/01/02 11:44:50;;;;;;;3.97;1.67;;;;;;;11.32;100.00;100552.50;6151403;29;20426;-77
2022/01/02 11:47:51;;;;;;;3.63;0.80;;;;;;;11.43;100.00;100557.94;6168648;28;20050;-77
2022/01/02 11:50:53;;;;;;;6.80;1.30;;;;;;;11.53;100.00;100550.34;6188876;28;20047;-76
2022/01/02 11:53:54;;;;;;;1.58;1.20;;;;;;;11.64;100.00;100563.72;6184567;28;20043;-75
2022/01/02 11:56:56;;;;;;;2.17;1.15;;;;;;;11.72;100.00;100563.22;6197451;28;20058;-78
2022/01/02 11:59:59;;;;;;;1.30;0.90;;;;;;;11.84;100.00;100558.09;6200643;28;20058;-75
2022/01/02 12:03:00;;;;;;;2.50;1.42;;;;;;;11.94;100.00;100529.41;6189540;28;20518;-77
2022/01/02 12:06:14;;;;;;;1.10;0.93;;;;;;;12.01;100.00;100549.16;6175857;28;20055;-75
2022/01/02 12:09:36;;;;;;;4.63;1.27;;;;;;;12.03;100.00;100567.47;6152824;29;20066;-77
2022/01/02 12:13:13;;;;;;;2.05;0.82;;;;;;;12.04;100.00;100542.84;6165363;28;20387;-76
2022/01/02 12:16:17;;;;;;;2.50;1.02;;;;;;;12.05;100.00;100547.19;6183227;28;20133;-78
2022/01/02 12:19:19;;;;;;;5.72;1.30;;;;;;;12.13;100.00;100529.09;6183996;28;20051;-75
2022/01/02 12:22:20;;;;;;;2.38;1.83;;;;;;;12.13;100.00;100524.69;6176093;28;20050;-73
2022/01/02 12:25:24;;;;;;;4.40;1.42;;;;;;;12.06;100.00;100530.44;6175717;28;20055;-74
2022/01/02 12:28:25;;;;;;;2.20;1.05;;;;;;;12.07;100.00;100519.78;6175910;28;20133;-74
2022/01/02 12:31:30;;;;;;;2.90;1.10;;;;;;;12.05;100.00;100534.00;6170535;28;20043;-74
2022/01/02 12:34:33;;;;;;;2.65;1.25;;;;;;;11.96;100.00;100539.84;6163927;28;20043;-73
2022/01/02 12:37:34;;;;;;;1.88;1.15;;;;;;;11.96;100.00;100524.06;6169724;28;20483;-74
2022/01/02 12:40:38;;;;;;;3.10;1.50;;;;;;;12.03;100.00;100525.34;6175295;28;20051;-76
2022/01/02 12:43:40;;;;;;;2.92;1.20;;;;;;;12.02;100.00;100523.66;6175151;28;20050;-76
2022/01/02 12:46:48;;;;;;;1.98;1.38;;;;;;;12.00;100.00;100534.28;6167500;28;20074;-76
2022/01/02 12:49:50;;;;;;;1.83;1.50;;;;;;;12.03;100.00;100547.25;6181081;28;20058;-77
2022/01/02 12:52:53;;;;;;;1.98;1.38;;;;;;;12.05;100.00;100537.47;6172278;28;20058;-79
2022/01/02 12:55:57;;;;;;;3.00;1.42;;;;;;;12.10;100.00;100539.81;6172675;28;20081;-77
2022/01/02 12:59:13;;;;;;;3.88;1.38;;;;;;;12.06;100.00;100544.44;6182761;28;20042;-78
2022/01/02 13:02:20;;;;;;;2.33;1.40;;;;;;;12.02;100.00;100536.81;6172559;28;20522;-75
2022/01/02 13:05:21;;;;;;;1.73;1.33;;;;;;;11.92;100.00;100537.41;6169687;28;20055;-78
2022/01/02 13:08:24;;;;;;;2.10;1.30;;;;;;;11.83;100.00;100540.59;6166647;28;20050;-77
2022/01/02 13:11:35;;;;;;;11.63;2.90;;;;;;;11.79;100.00;100540.84;6162203;28;20051;-77
2022/01/02 13:14:42;;;;;;;6.88;1.40;;;;;;;11.79;100.00;100552.22;6161386;28;20055;-77
2022/01/02 13:17:50;;;;;;;2.28;1.40;;;;;;;11.80;100.00;100535.47;6167229;28;20050;-78
2022/01/02 13:20:51;;;;;;;1.08;0.98;;;;;;;11.83;100.00;100532.69;6166852;28;20054;-76
2022/01/02 13:23:53;;;;;;;1.48;1.30;;;;;;;11.81;100.00;100537.19;6162660;28;20050;-76
2022/01/02 13:26:55;;;;;;;2.15;1.35;;;;;;;11.90;100.00;100523.50;6172427;28;20148;-79
2022/01/02 13:29:58;;;;;;;3.55;1.58;;;;;;;11.97;100.00;100526.56;6172832;28;20061;-78
2022/01/02 13:33:02;;;;;;;1.40;1.30;;;;;;;11.97;100.00;100521.31;6166829;28;20050;-77
2022/01/02 13:36:08;;;;;;;2.95;1.50;;;;;;;11.89;100.00;100540.22;6170001;28;20051;-76
2022/01/02 13:39:10;;;;;;;1.23;0.80;;;;;;;11.91;100.00;100526.97;6172544;28;20545;-76
2022/01/02 13:42:13;;;;;;;2.20;1.60;;;;;;;11.85;100.00;100524.69;6170627;28;20050;-76
2022/01/02 13:45:17;;;;;;;1.73;1.30;;;;;;;11.77;100.00;100519.91;6172145;28;20077;-76
2022/01/02 13:48:22;;;;;;;6.40;1.33;;;;;;;11.81;100.00;100512.63;6169136;28;20521;-76
2022/01/02 13:51:25;;;;;;;1.67;1.00;;;;;;;11.79;100.00;100522.44;6164843;28;20054;-77
2022/01/02 13:54:27;;;;;;;1.60;1.20;;;;;;;11.86;100.00;100518.50;6168381;28;20058;-77
2022/01/02 13:57:31;;;;;;;2.97;1.20;;;;;;;11.76;100.00;100512.91;6170818;28;20047;-75
2022/01/02 14:00:32;;;;;;;2.17;0.95;;;;;;;11.74;100.00;100516.59;6164281;28;20414;-77
2022/01/02 14:03:37;;;;;;;1.67;1.02;;;;;;;11.72;100.00;100507.94;6171447;28;20047;-77
2022/01/02 14:06:40;;;;;;;4.03;1.73;;;;;;;11.78;100.00;100528.63;6165669;28;20054;-77
2022/01/02 14:09:50;;;;;;;2.33;1.13;;;;;;;11.69;100.00;100525.63;6168241;28;20521;-76